Pemaquid Point Lighthouse, ME

43° 50' 13"N, 69° 30' 22"W, Elevation 40 ft.
Eastern Time

Hourly observations for the last 72 hours

Date Time Temperature (°F) Humi-
dity

(%)
Wind
(mph)
Pressure Rain (in) Sun
(W/m2)
UV ET
(in)
Air Dew 6 Hour 1 Hr 3 Hr 6 Hr Day
Alt
(in)
Sea
Level

(mb)
Max Min
21 03:00 47.5 47.0 98 S 4 G 9 30.00 1015.9 0.00 0 0.0 0.000
21 02:00 46.3 45.5 49.0 46.2 97 WSW 3 G 8 29.97 1015.0 0.01 0.04 0.00 0 0.0 0.000
21 01:00 46.5 45.7 97 SSW 1 G 5 30.00 1015.8 0.00 0 0.0 0.000
21 00:00 46.7 45.9 97 WSW 4 G 12 29.99 1015.6 0.01 0.17 0 0.0 0.023
20 23:00 47.6 46.8 97 S 12 G 16 30.01 1016.2 0.03 0.16 0 0.0 0.023
20 22:00 47.2 46.4 97 SW 2 G 8 30.01 1016.3 0.16 0 0.0 0.023
20 21:00 48.8 48.3 98 SW 7 G 12 30.01 1016.2 0.03 0.16 0 0.0 0.023
20 20:00 48.8 48.3 48.9 46.4 98 S 13 G 18 29.99 1015.7 0.13 0 0.0 0.023
20 19:00 47.3 46.5 97 SW 3 G 11 29.98 1015.3 0.13 7 0.0 0.023
20 18:00 46.4 45.6 97 S 14 G 19 29.97 1014.9 0.13 19 0.0 0.022
20 17:00 48.0 47.2 97 S 17 G 25 29.93 1013.4 0.13 132 0.7 0.020
20 16:00 47.4 46.6 97 SSE 5 G 8 29.93 1013.7 0.13 91 0.7 0.017
20 15:00 47.8 47.0 97 SSE 7 G 11 29.94 1014.0 0.13 167 1.4 0.013
20 14:00 46.8 46.0 48.5 45.9 97 SW 3 G 8 29.95 1014.2 0.01 0.12 0.13 100 1.1 0.011
20 13:00 46.3 45.5 97 SSW 12 G 16 29.94 1014.0 0.01 0.13 93 1.0 0.009
20 12:00 45.9 45.1 97 SSW 11 G 14 29.92 1013.3 0.12 142 1.3 0.007
20 11:00 46.2 45.4 97 SSW 15 G 18 29.90 1012.6 0.03 0.11 0.12 90 0.9 0.005
20 10:00 47.4 46.6 97 SSW 16 G 23 29.86 1011.4 0.06 0.09 146 1.2 0.003
20 09:00 46.7 45.9 97 S 19 G 22 29.84 1010.5 0.02 0.03 100 0.7 0.002
20 08:00 48.3 47.5 49.0 46.0 97 S 24 G 30 29.82 1009.8 0.01 0.01 39 0.0 0.001
20 07:00 48.2 47.4 97 SSW 24 G 29 29.80 1009.1 0.01 23 0.0 0.000
20 06:00 47.9 47.1 97 S 21 G 26 29.77 1008.3 0.01 0 0.0 0.000
20 05:00 47.7 46.9 97 S 19 G 26 29.76 1007.9 0.01 0.01 0.01 0 0.0 0.000
20 04:00 48.1 47.3 97 SSW 20 G 24 29.77 1008.2 0.00 0 0.0 0.000
20 03:00 47.6 46.8 97 S 19 G 23 29.78 1008.4 0.00 0 0.0 0.000
20 02:00 46.7 45.6 49.2 46.7 96 S 16 G 20 29.80 1009.0 0.00 0 0.0 0.000
20 01:00 47.2 46.1 96 SSW 18 G 23 29.79 1008.9 0.00 0 0.0 0.000
20 00:00 46.8 45.7 96 S 21 G 25 29.80 1009.0 0.02 0 0.0 0.083
19 23:00 47.8 46.7 96 SSW 22 G 26 29.79 1008.9 0.02 0 0.0 0.083
19 22:00 48.5 47.4 96 SSW 20 G 27 29.79 1008.8 0.02 0 0.0 0.082
19 21:00 48.3 46.9 95 SSW 23 G 28 29.77 1008.1 0.02 0 0.0 0.081
19 20:00 49.0 47.6 51.2 48.5 95 SSW 24 G 30 29.75 1007.4 0.02 0 0.0 0.080
19 19:00 49.7 48.0 94 SSW 29 G 36 29.73 1006.8 0.02 18 0.0 0.078
19 18:00 49.6 47.9 94 SSW 23 G 27 29.73 1006.7 0.02 74 0.0 0.075
19 17:00 49.4 47.5 93 SSW 24 G 31 29.71 1006.2 0.02 128 0.9 0.070
19 16:00 50.2 48.0 92 SSW 25 G 29 29.71 1006.0 0.02 325 2.1 0.060
19 15:00 50.8 48.6 92 SSW 23 G 28 29.71 1006.1 0.02 867 3.2 0.048
19 14:00 50.2 48.3 50.5 44.2 93 SSW 22 G 26 29.73 1006.7 0.02 758 4.2 0.035
19 13:00 49.2 47.5 94 S 19 G 22 29.74 1007.1 0.02 552 5.3 0.023
19 12:00 47.4 46.0 95 SSW 18 G 23 29.76 1008.0 0.02 596 4.0 0.015
19 11:00 47.2 46.1 96 SSW 13 G 20 29.77 1008.0 0.02 373 2.5 0.009
19 10:00 46.9 45.8 96 SSW 20 G 23 29.75 1007.7 0.02 411 2.4 0.004
19 09:00 45.9 44.8 96 SW 8 G 16 29.76 1008.0 0.02 281 1.3 0.001
19 08:00 44.3 43.0 44.5 42.4 95 SW 5 G 11 29.78 1008.4 0.02 134 0.5 0.000
19 07:00 43.3 42.0 95 SSW 5 G 9 29.78 1008.4 0.02 35 0.0 0.000
19 06:00 43.7 42.4 95 SSW 7 G 11 29.77 1008.2 0.02 0 0.0 0.000
19 05:00 43.1 41.8 95 SW 3 G 8 29.77 1008.2 0.02 0 0.0 0.000
19 04:00 42.6 41.3 95 SW 3 G 6 29.78 1008.5 0.02 0 0.0 0.000
19 03:00 42.7 41.4 95 SW 3 G 8 29.79 1008.9 0.02 0 0.0 0.000
19 02:00 43.0 41.4 43.6 41.3 94 SW 5 G 8 29.82 1009.8 0.01 0.03 0.06 0.02 0 0.0 0.000
19 01:00 43.1 41.5 94 SW 8 G 12 29.86 1011.2 0.01 0.01 0 0.0 0.000
19 00:00 42.9 41.3 94 WSW 5 G 11 29.89 1012.3 0.01 0.06 0 0.0 0.036
18 23:00 42.0 40.4 94 SSE 6 G 9 29.92 1013.4 0.03 0.05 0 0.0 0.036
18 22:00 41.6 39.7 93 SE 4 G 9 29.98 1015.4 0.02 0.05 0 0.0 0.036
18 21:00 41.5 39.6 93 SE 10 G 13 30.03 1017.0 0.01 0.03 0 0.0 0.035
18 20:00 41.4 39.0 42.4 41.3 91 SSE 14 G 19 30.06 1017.8 0.02 0.02 0.02 0.02 0 0.0 0.034
18 19:00 41.9 38.9 89 SSE 16 G 21 30.10 1019.4 0.00 0 0.0 0.033
18 18:00 42.0 38.4 87 SSE 13 G 20 30.12 1019.9 0.00 18 0.0 0.032
18 17:00 41.7 38.4 88 SSE 15 G 18 30.16 1021.4 0.00 62 0.0 0.030
18 16:00 41.8 38.2 87 SSE 14 G 19 30.18 1022.1 0.00 74 0.5 0.028
18 15:00 41.8 37.9 86 SSE 13 G 16 30.20 1022.7 0.00 81 0.6 0.025
18 14:00 41.9 38.9 44.3 41.7 89 SSE 14 G 16 30.24 1023.9 0.00 125 1.0 0.023
18 13:00 42.0 39.0 89 S 12 G 14 30.25 1024.6 0.00 86 0.8 0.021
18 12:00 41.9 38.9 89 S 12 G 14 30.24 1024.1 0.00 90 0.8 0.018
18 11:00 43.8 40.2 87 S 10 G 12 30.25 1024.4 0.00 214 1.6 0.012
18 10:00 42.6 39.0 87 S 7 G 10 30.26 1024.7 0.00 190 1.3 0.008
18 09:00 43.1 39.5 87 S 8 G 11 30.26 1024.9 0.00 209 1.3 0.006
18 08:00 41.7 38.7 41.7 35.0 89 S 6 G 10 30.27 1025.0 0.00 39 0.0 0.005
18 07:00 39.0 36.6 91 SSE 4 G 5 30.26 1024.6 0.00 30 0.0 0.005
18 06:00 35.1 31.6 87 W 1 G 2 30.24 1024.0 0.00 9 0.0 0.005
18 05:00 39.9 35.2 83 W 3 G 8 30.23 1023.6 0.00 0 0.0 0.004
18 04:00 38.7 34.3 84 W 7 G 8 30.22 1023.4 0.00 0 0.0 0.003

Data generated by WxSolution Version 1.9.1.5, Build 2018.05.20.